Terminal Aerodrome Forecast
Issued by NWS Burlington, VT

Home | Current Version | Previous Version | Text Only | Print | Product List | Glossary On
Versions: 1 2 3 4 5 6 7 8 9 10 11 12 13 14 15 16 17 18 19 20 21 22 23
000
FTUS41 KBTV 041720
TAFBTV
TAF
KBTV 041720Z 0418/0518 24004KT P6SM VCSH BKN060 BKN120
     FM042300 19004KT P6SM SCT060 BKN120
     FM050600 19006KT P6SM VCSH BKN050 OVC100
     FM051200 23008KT P6SM SCT050 BKN100=

USA.gov is the U.S. government's official web portal to all federal, state and local government web resources and services.